Joven Daniel Segundo — EA8808 — position and weather

sailwx.info

Track history (hours):
 
Tides and Currents Weather Stations Pressure Air Temp Water Temp Dewpoint Dewpoint Depression Visibility Wind Speed Wind Dir Waves Ship Positions

Joven Daniel Segundo

Last reported at 2017-Nov-24 04:10 UTC. Time now 2017-Nov-24 05:37 UTC.
Position N 39°32' E 002°38'.

Length 21 m.

Type: Fishing. MMSI: 224189820.

Date/timePositionNaut miles runAvg speedWind from/ knotsBaromVisibWave heightAir tempDewpointWater temp
2017-Nov-24 04:10N 39°32' E 002°38'2 9.4
2017-Nov-24 04:00N 39°33' E 002°38'1 1.8
2017-Nov-24 03:30N 39°34' E 002°38'0 0.0
2017-Nov-23 16:04N 39°34' E 002°38'0 1.7
2017-Nov-23 16:00N 39°34' E 002°38'3 6.3
2017-Nov-23 15:30N 39°31' E 002°37'5 9.5
2017-Nov-23 15:00N 39°27' E 002°33'6 9.5
2017-Nov-23 14:25N 39°23' E 002°29'8 0.8
2017-Nov-23 04:28N 39°29' E 002°35'4 9.5
2017-Nov-23 04:00N 39°33' E 002°38'1 1.8
2017-Nov-23 03:30N 39°34' E 002°38'  
2017-Nov-17 16:05N 39°34' E 002°38'0 0.2
2017-Nov-17 16:00N 39°34' E 002°38'1 1.2
2017-Nov-17 15:30N 39°33' E 002°38'4 8.9
2017-Nov-17 15:00N 39°29' E 002°38'5 9.7
2017-Nov-17 14:30N 39°24' E 002°38'9 1.3
2017-Nov-17 07:20N 39°22' E 002°26'310.3
2017-Nov-17 07:00N 39°25' E 002°28'1 1.9
2017-Nov-17 06:30N 39°26' E 002°29'2 3.0
2017-Nov-17 06:00N 39°26' E 002°31'2 3.1
2017-Nov-17 05:30N 39°26' E 002°33'5 4.1
2017-Nov-17 04:21N 39°30' E 002°36'3 9.4
2017-Nov-17 04:00N 39°33' E 002°38'1 0.1
2017-Nov-16 15:59N 39°34' E 002°38'3 5.4
2017-Nov-16 15:30N 39°31' E 002°38'5 9.2
2017-Nov-16 15:00N 39°27' E 002°35'3 0.4
2017-Nov-16 06:13N 39°25' E 002°32'1 3.0
2017-Nov-16 06:00N 39°25' E 002°33'2 3.0
2017-Nov-16 05:30N 39°26' E 002°35'2 3.1
2017-Nov-16 05:00N 39°26' E 002°37'2 4.8
2017-Nov-16 04:30N 39°28' E 002°39'5 9.7
2017-Nov-16 04:00N 39°33' E 002°38'1 1.7
2017-Nov-16 03:30N 39°34' E 002°38'0 0.0
2017-Nov-15 15:55N 39°34' E 002°38'2 5.4
2017-Nov-15 15:30N 39°32' E 002°39'4 8.9
2017-Nov-15 15:00N 39°27' E 002°39'4 8.9
2017-Nov-15 14:30N 39°23' E 002°41'9 1.6
2017-Nov-15 08:51N 39°14' E 002°39'1 3.0
2017-Nov-15 08:27N 39°15' E 002°38'1 3.0
2017-Nov-15 08:00N 39°16' E 002°37'15 4.1
2017-Nov-15 04:16N 39°31' E 002°38'2 9.4
2017-Nov-15 04:00N 39°33' E 002°38'1 0.0
2017-Nov-14 13:03N 39°34' E 002°38'13 4.9
2017-Nov-14 10:24N 39°21' E 002°42'1 3.6
2017-Nov-14 10:00N 39°20' E 002°43'1 1.9
2017-Nov-14 09:30N 39°21' E 002°42'5 2.6
2017-Nov-14 07:28N 39°25' E 002°38'4 8.1
2017-Nov-14 07:00N 39°21' E 002°40'10 3.6
2017-Nov-14 04:12N 39°31' E 002°38'  
Track history (hours):
 
Tides and Currents Weather Stations Pressure Air Temp Water Temp Dewpoint Dewpoint Depression Visibility Wind Speed Wind Dir Waves Ship Positions

Joven Daniel Segundo

Last reported at 2017-Nov-24 04:10 UTC. Time now 2017-Nov-24 05:37 UTC.
Position N 39°32' E 002°38'.

Length 21 m.

Type: Fishing. MMSI: 224189820.

Date/timePositionNaut miles runAvg speedWind from/ knotsBaromVisibWave heightAir tempDewpointWater temp
2017-Nov-24 04:10N 39°32' E 002°38'2 9.4
2017-Nov-24 04:00N 39°33' E 002°38'1 1.8
2017-Nov-24 03:30N 39°34' E 002°38'0 0.0
2017-Nov-23 16:04N 39°34' E 002°38'0 1.7
2017-Nov-23 16:00N 39°34' E 002°38'3 6.3
2017-Nov-23 15:30N 39°31' E 002°37'5 9.5
2017-Nov-23 15:00N 39°27' E 002°33'6 9.5
2017-Nov-23 14:25N 39°23' E 002°29'8 0.8
2017-Nov-23 04:28N 39°29' E 002°35'4 9.5
2017-Nov-23 04:00N 39°33' E 002°38'1 1.8
2017-Nov-23 03:30N 39°34' E 002°38'  
2017-Nov-17 16:05N 39°34' E 002°38'0 0.2
2017-Nov-17 16:00N 39°34' E 002°38'1 1.2
2017-Nov-17 15:30N 39°33' E 002°38'4 8.9
2017-Nov-17 15:00N 39°29' E 002°38'5 9.7
2017-Nov-17 14:30N 39°24' E 002°38'9 1.3
2017-Nov-17 07:20N 39°22' E 002°26'310.3
2017-Nov-17 07:00N 39°25' E 002°28'1 1.9
2017-Nov-17 06:30N 39°26' E 002°29'2 3.0
2017-Nov-17 06:00N 39°26' E 002°31'2 3.1
2017-Nov-17 05:30N 39°26' E 002°33'5 4.1
2017-Nov-17 04:21N 39°30' E 002°36'3 9.4
2017-Nov-17 04:00N 39°33' E 002°38'1 0.1
2017-Nov-16 15:59N 39°34' E 002°38'3 5.4
2017-Nov-16 15:30N 39°31' E 002°38'5 9.2
2017-Nov-16 15:00N 39°27' E 002°35'3 0.4
2017-Nov-16 06:13N 39°25' E 002°32'1 3.0
2017-Nov-16 06:00N 39°25' E 002°33'2 3.0
2017-Nov-16 05:30N 39°26' E 002°35'2 3.1
2017-Nov-16 05:00N 39°26' E 002°37'2 4.8
2017-Nov-16 04:30N 39°28' E 002°39'5 9.7
2017-Nov-16 04:00N 39°33' E 002°38'1 1.7
2017-Nov-16 03:30N 39°34' E 002°38'0 0.0
2017-Nov-15 15:55N 39°34' E 002°38'2 5.4
2017-Nov-15 15:30N 39°32' E 002°39'4 8.9
2017-Nov-15 15:00N 39°27' E 002°39'4 8.9
2017-Nov-15 14:30N 39°23' E 002°41'9 1.6
2017-Nov-15 08:51N 39°14' E 002°39'1 3.0
2017-Nov-15 08:27N 39°15' E 002°38'1 3.0
2017-Nov-15 08:00N 39°16' E 002°37'15 4.1
2017-Nov-15 04:16N 39°31' E 002°38'2 9.4
2017-Nov-15 04:00N 39°33' E 002°38'1 0.0
2017-Nov-14 13:03N 39°34' E 002°38'13 4.9
2017-Nov-14 10:24N 39°21' E 002°42'1 3.6
2017-Nov-14 10:00N 39°20' E 002°43'1 1.9
2017-Nov-14 09:30N 39°21' E 002°42'5 2.6
2017-Nov-14 07:28N 39°25' E 002°38'4 8.1
2017-Nov-14 07:00N 39°21' E 002°40'10 3.6
2017-Nov-14 04:12N 39°31' E 002°38'  

Dump ship's entire track history